Time;durP1;ratioP1;P1;durP2;ratioP2;P2;SDS_P1;SDS_P2;PMS_P1;PMS_P2;Temp;Humidity;BMP_temperature;BMP_pressure;BME280_temperature;BME280_humidity;BME280_pressure;Samples;Min_cycle;Max_cycle;Signal;HPM_P1;HPM_P2
2023/05/19 00:01:27;;;;;;;;;;;;;;;10.71;57.00098;102932.5;;;;-68
2023/05/19 00:06:30;;;;;;;;;;;;;;;10.65;57.30566;102928.6;;;;-67
2023/05/19 00:11:26;;;;;;;;;;;;;;;10.64;57.21387;102928.5;;;;-68
2023/05/19 00:16:27;;;;;;;;;;;;;;;10.64;56.91309;102925.9;;;;-68
2023/05/19 00:21:26;;;;;;;;;;;;;;;10.56;56.87988;102917.6;;;;-66
2023/05/19 00:26:26;;;;;;;;;;;;;;;10.51;57.37598;102917.5;;;;-68
2023/05/19 00:29:50;;;;;;;0.2;0.1;;;;;;;;;;;;;-67
2023/05/19 00:31:26;;;;;;;;;;;;;;;10.48;57.07129;102913.9;;;;-69
2023/05/19 00:36:26;;;;;;;;;;;;;;;10.44;57.47852;102914.9;;;;-67
2023/05/19 00:41:31;;;;;;;;;;;;;;;10.4;57.2832;102914.8;;;;-69
2023/05/19 00:46:26;;;;;;;;;;;;;;;10.36;57.26758;102909.8;;;;-68
2023/05/19 00:51:28;;;;;;;;;;;;;;;10.32;57.27246;102911.5;;;;-68
2023/05/19 00:56:26;;;;;;;;;;;;;;;10.29;57.16992;102907.1;;;;-68
2023/05/19 00:59:52;;;;;;;0.3;0.1;;;;;;;;;;;;;-68
2023/05/19 01:01:26;;;;;;;;;;;;;;;10.27;57.41016;102904.1;;;;-68
2023/05/19 01:06:26;;;;;;;;;;;;;;;10.22;57.55957;102895.4;;;;-67
2023/05/19 01:11:26;;;;;;;;;;;;;;;10.19;57.36621;102894.8;;;;-69
2023/05/19 01:16:29;;;;;;;;;;;;;;;10.16;57.98633;102903.7;;;;-67
2023/05/19 01:21:43;;;;;;;;;;;;;;;10.12;57.45898;102903.6;;;;-69
2023/05/19 01:26:37;;;;;;;;;;;;;;;10.08;57.4082;102895.1;;;;-67
2023/05/19 01:30:01;;;;;;;0.2;0.1;;;;;;;;;;;;;-68
2023/05/19 01:31:27;;;;;;;;;;;;;;;10.03;57.3916;102892.5;;;;-68
2023/05/19 01:36:26;;;;;;;;;;;;;;;9.98;57.41699;102884;;;;-68
2023/05/19 01:41:28;;;;;;;;;;;;;;;9.93;57.39941;102878.3;;;;-66
2023/05/19 01:46:26;;;;;;;;;;;;;;;9.88;57.15918;102878.7;;;;-70
2023/05/19 01:51:26;;;;;;;;;;;;;;;9.84;57.23242;102876.9;;;;-66
2023/05/19 01:56:29;;;;;;;;;;;;;;;9.74;57.00684;102873.6;;;;-67
2023/05/19 01:59:56;;;;;;;0.2;0.1;;;;;;;;;;;;;-68
2023/05/19 02:01:34;;;;;;;;;;;;;;;9.71;57.08105;102872.7;;;;-68
2023/05/19 02:06:31;;;;;;;;;;;;;;;9.67;57.04297;102874.1;;;;-68
2023/05/19 02:11:30;;;;;;;;;;;;;;;9.56;56.80664;102875.7;;;;-67
2023/05/19 02:16:30;;;;;;;;;;;;;;;9.54;56.80371;102874.1;;;;-66
2023/05/19 02:21:26;;;;;;;;;;;;;;;9.46;57.05957;102868.7;;;;-68
2023/05/19 02:26:26;;;;;;;;;;;;;;;9.46;56.64844;102863.3;;;;-67
2023/05/19 02:30:04;;;;;;;0.2;0.1;;;;;;;;;;;;;-69
2023/05/19 02:31:26;;;;;;;;;;;;;;;9.36;56.95801;102868.6;;;;-67
2023/05/19 02:36:27;;;;;;;;;;;;;;;9.3;56.77148;102867.1;;;;-68
2023/05/19 02:41:26;;;;;;;;;;;;;;;9.24;56.62012;102865.4;;;;-67
2023/05/19 02:46:26;;;;;;;;;;;;;;;9.15;56.81934;102859.4;;;;-67
2023/05/19 02:51:28;;;;;;;;;;;;;;;9.05;56.91797;102860.1;;;;-67
2023/05/19 02:56:26;;;;;;;;;;;;;;;9.02;57.01367;102859.2;;;;-68
2023/05/19 02:59:57;;;;;;;0.2;0.1;;;;;;;;;;;;;-68
2023/05/19 03:01:31;;;;;;;;;;;;;;;8.9;57.1416;102854.4;;;;-67
2023/05/19 03:06:26;;;;;;;;;;;;;;;8.83;57.40039;102852.5;;;;-67
2023/05/19 03:11:27;;;;;;;;;;;;;;;8.79;57.08301;102848.5;;;;-67
2023/05/19 03:16:26;;;;;;;;;;;;;;;8.68;57.21289;102847.3;;;;-67
2023/05/19 03:21:26;;;;;;;;;;;;;;;8.6;57.32324;102849;;;;-66
2023/05/19 03:26:28;;;;;;;;;;;;;;;8.5;57.3877;102848.6;;;;-68
2023/05/19 03:29:58;;;;;;;0.2;0.1;;;;;;;;;;;;;-66
2023/05/19 03:31:26;;;;;;;;;;;;;;;8.44;57.28125;102840.5;;;;-68
2023/05/19 03:36:30;;;;;;;;;;;;;;;8.37;57.31543;102838.7;;;;-68
2023/05/19 03:41:26;;;;;;;;;;;;;;;8.3;57.38379;102839.6;;;;-66
2023/05/19 03:46:26;;;;;;;;;;;;;;;8.31;57.38574;102836;;;;-67
2023/05/19 03:51:27;;;;;;;;;;;;;;;8.2;57.32715;102836.7;;;;-67
2023/05/19 03:56:26;;;;;;;;;;;;;;;8.18;57.36914;102835.9;;;;-69
2023/05/19 03:59:59;;;;;;;0.2;0.1;;;;;;;;;;;;;-68
2023/05/19 04:01:26;;;;;;;;;;;;;;;8.18;57.48047;102842;;;;-68
2023/05/19 04:06:26;;;;;;;;;;;;;;;8.12;57.28223;102842.1;;;;-69
2023/05/19 04:11:26;;;;;;;;;;;;;;;8.08;57.45605;102838.2;;;;-67
2023/05/19 04:16:26;;;;;;;;;;;;;;;8.09;57.30078;102841.9;;;;-67
2023/05/19 04:21:26;;;;;;;;;;;;;;;8.1;56.96973;102844.7;;;;-67
2023/05/19 04:26:29;;;;;;;;;;;;;;;8.11;57.00488;102853.4;;;;-68
2023/05/19 04:30:00;;;;;;;0.2;0.1;;;;;;;;;;;;;-68
2023/05/19 04:31:41;;;;;;;;;;;;;;;8.11;57.0498;102850.3;;;;-67
2023/05/19 04:36:26;;;;;;;;;;;;;;;8.11;56.76172;102852;;;;-67
2023/05/19 04:41:29;;;;;;;;;;;;;;;8.13;56.85352;102849.2;;;;-67
2023/05/19 04:46:28;;;;;;;;;;;;;;;8.14;56.73145;102851.1;;;;-68
2023/05/19 04:51:27;;;;;;;;;;;;;;;8.18;56.49316;102853.9;;;;-67
2023/05/19 04:56:27;;;;;;;;;;;;;;;8.23;56.59961;102854.9;;;;-67
2023/05/19 05:00:00;;;;;;;0.2;0.1;;;;;;;;;;;;;-68
2023/05/19 05:01:30;;;;;;;;;;;;;;;8.26;56.42676;102861.2;;;;-67
2023/05/19 05:06:28;;;;;;;;;;;;;;;8.32;56.41211;102862;;;;-67
2023/05/19 05:11:26;;;;;;;;;;;;;;;8.42;56.20313;102862.2;;;;-67
2023/05/19 05:16:26;;;;;;;;;;;;;;;8.51;56.02637;102864.3;;;;-66
2023/05/19 05:21:30;;;;;;;;;;;;;;;8.65;56.10938;102869;;;;-68
2023/05/19 05:26:29;;;;;;;;;;;;;;;8.82;56.67578;102869.1;;;;-67
2023/05/19 05:30:01;;;;;;;0.2;0.1;;;;;;;;;;;;;-67
2023/05/19 05:31:27;;;;;;;;;;;;;;;9.28;57.54688;102875.4;;;;-69
2023/05/19 05:36:26;;;;;;;;;;;;;;;10.11;55.07422;102870.5;;;;-67
2023/05/19 05:41:26;;;;;;;;;;;;;;;10.79;53.92188;102867.3;;;;-70
2023/05/19 05:46:26;;;;;;;;;;;;;;;11.5;53.99902;102864.2;;;;-67
2023/05/19 05:51:27;;;;;;;;;;;;;;;12.11;53.25684;102861.6;;;;-69
2023/05/19 05:56:26;;;;;;;;;;;;;;;12.63;52.44629;102861.8;;;;-69
2023/05/19 06:00:04;;;;;;;0.2;0.1;;;;;;;;;;;;;-69
2023/05/19 06:01:27;;;;;;;;;;;;;;;13.08;52.48828;102856.9;;;;-67
2023/05/19 06:06:26;;;;;;;;;;;;;;;13.65;52.05176;102856.4;;;;-68
2023/05/19 06:11:26;;;;;;;;;;;;;;;14.22;51.08398;102859.5;;;;-69
2023/05/19 06:16:27;;;;;;;;;;;;;;;14.68;50.7998;102856.2;;;;-68
2023/05/19 06:21:26;;;;;;;;;;;;;;;15.17;50.25781;102855;;;;-68
2023/05/19 06:26:26;;;;;;;;;;;;;;;15.52;50.30859;102847;;;;-68
2023/05/19 06:30:04;;;;;;;0.3;0.1;;;;;;;;;;;;;-68
2023/05/19 06:31:26;;;;;;;;;;;;;;;15.88;50.02246;102842.3;;;;-69
2023/05/19 06:36:26;;;;;;;;;;;;;;;16.29;49.8877;102847.8;;;;-68
2023/05/19 06:41:26;;;;;;;;;;;;;;;16.65;49.64551;102844.5;;;;-68
2023/05/19 06:46:26;;;;;;;;;;;;;;;17.02;49.0293;102846.5;;;;-69
2023/05/19 06:51:26;;;;;;;;;;;;;;;17.36;48.71582;102843;;;;-68
2023/05/19 06:56:26;;;;;;;;;;;;;;;17.67;48.31836;102844.3;;;;-69
2023/05/19 07:00:07;;;;;;;0.2;0;;;;;;;;;;;;;-69
2023/05/19 07:01:26;;;;;;;;;;;;;;;17.7;48.40234;102844.9;;;;-68
2023/05/19 07:06:26;;;;;;;;;;;;;;;17.57;48.58105;102850.5;;;;-67
2023/05/19 07:11:26;;;;;;;;;;;;;;;17.37;49.13574;102852.5;;;;-69
2023/05/19 07:16:26;;;;;;;;;;;;;;;17.23;49.2793;102853.1;;;;-68
2023/05/19 07:21:26;;;;;;;;;;;;;;;17.12;49.6416;102853.4;;;;-67
2023/05/19 07:26:26;;;;;;;;;;;;;;;17.18;49.47949;102854.6;;;;-68
2023/05/19 07:30:09;;;;;;;0.2;0.1;;;;;;;;;;;;;-68
2023/05/19 07:31:26;;;;;;;;;;;;;;;17.22;49.31348;102852.3;;;;-69
2023/05/19 07:36:26;;;;;;;;;;;;;;;17.18;49.74023;102853.4;;;;-67
2023/05/19 07:41:26;;;;;;;;;;;;;;;17.44;49.54102;102854.8;;;;-68
2023/05/19 07:46:26;;;;;;;;;;;;;;;17.64;49.04102;102856.2;;;;-68
2023/05/19 07:51:26;;;;;;;;;;;;;;;17.72;49.24414;102854.5;;;;-68
2023/05/19 07:56:26;;;;;;;;;;;;;;;17.81;48.95801;102846.9;;;;-69
2023/05/19 08:00:12;;;;;;;0.7;0.2;;;;;;;;;;;;;-68
2023/05/19 08:01:27;;;;;;;;;;;;;;;17.95;49.00879;102841.3;;;;-69
2023/05/19 08:06:27;;;;;;;;;;;;;;;18.13;48.95898;102842.5;;;;-68
2023/05/19 08:11:26;;;;;;;;;;;;;;;18.52;48.78711;102831.7;;;;-68
2023/05/19 08:16:26;;;;;;;;;;;;;;;18.91;48.49902;102829.6;;;;-68
2023/05/19 08:21:26;;;;;;;;;;;;;;;19.23;47.83887;102830.7;;;;-68
2023/05/19 08:26:26;;;;;;;;;;;;;;;19.51;47.7666;102827.6;;;;-69
2023/05/19 08:30:14;;;;;;;0.2;0.1;;;;;;;;;;;;;-67
2023/05/19 08:31:26;;;;;;;;;;;;;;;19.78;47.29395;102825.2;;;;-68
2023/05/19 08:36:26;;;;;;;;;;;;;;;20.1;46.99707;102819.1;;;;-68
2023/05/19 08:41:26;;;;;;;;;;;;;;;20.26;46.80859;102811.1;;;;-68
2023/05/19 08:46:27;;;;;;;;;;;;;;;20.59;46.41992;102812.4;;;;-69
2023/05/19 08:51:30;;;;;;;;;;;;;;;20.8;46.25781;102812.2;;;;-69
2023/05/19 08:56:27;;;;;;;;;;;;;;;20.88;45.99121;102811.9;;;;-69
2023/05/19 09:00:17;;;;;;;0.2;0.1;;;;;;;;;;;;;-68
2023/05/19 09:01:27;;;;;;;;;;;;;;;21.03;46.04199;102814.3;;;;-70
2023/05/19 09:06:26;;;;;;;;;;;;;;;21.2;45.68164;102817.5;;;;-69
2023/05/19 09:11:27;;;;;;;;;;;;;;;21.46;45.29492;102817.4;;;;-73
2023/05/19 09:16:26;;;;;;;;;;;;;;;21.8;45.03125;102805.9;;;;-74
2023/05/19 09:21:37;;;;;;;;;;;;;;;22.22;44.4082;102798;;;;-73
2023/05/19 09:26:26;;;;;;;;;;;;;;;22.44;43.6377;102795.3;;;;-73
2023/05/19 09:30:20;;;;;;;0.2;0.1;;;;;;;;;;;;;-73
2023/05/19 09:31:26;;;;;;;;;;;;;;;22.61;43.73438;102801.6;;;;-73
2023/05/19 09:36:31;;;;;;;;;;;;;;;22.87;43.25293;102798.3;;;;-74
2023/05/19 09:41:29;;;;;;;;;;;;;;;23.13;42.62305;102800.2;;;;-74
2023/05/19 09:46:30;;;;;;;;;;;;;;;23.28;42.52246;102799.8;;;;-72
2023/05/19 09:51:26;;;;;;;;;;;;;;;23.48;42.19531;102803.6;;;;-74
2023/05/19 09:56:28;;;;;;;;;;;;;;;23.66;41.53125;102800.8;;;;-74
2023/05/19 10:00:25;;;;;;;0.2;0.1;;;;;;;;;;;;;-73
2023/05/19 10:01:26;;;;;;;;;;;;;;;23.76;41.28711;102789.8;;;;-73
2023/05/19 10:06:26;;;;;;;;;;;;;;;23.92;41.25488;102793.1;;;;-73
2023/05/19 10:11:26;;;;;;;;;;;;;;;24.12;40.39648;102792.6;;;;-73
2023/05/19 10:16:28;;;;;;;;;;;;;;;24.21;40.33496;102792.8;;;;-69
2023/05/19 10:21:28;;;;;;;;;;;;;;;24.24;40.46484;102785.4;;;;-68
2023/05/19 10:26:26;;;;;;;;;;;;;;;24.41;39.9248;102785;;;;-67
2023/05/19 10:30:30;;;;;;;0.3;0.1;;;;;;;;;;;;;-68
2023/05/19 10:31:26;;;;;;;;;;;;;;;24.58;39.7793;102783;;;;-67
2023/05/19 10:36:36;;;;;;;;;;;;;;;24.84;40.55371;102779.1;;;;-69
2023/05/19 10:41:30;;;;;;;;;;;;;;;25.16;40.20117;102778.4;;;;-65
2023/05/19 10:46:27;;;;;;;;;;;;;;;25.4;39.81738;102778.3;;;;-66
2023/05/19 10:51:31;;;;;;;;;;;;;;;25.6;39.7998;102774.4;;;;-66
2023/05/19 10:56:35;;;;;;;;;;;;;;;25.77;38.8291;102774.4;;;;-65
2023/05/19 11:00:34;;;;;;;0.2;0.1;;;;;;;;;;;;;-67
2023/05/19 11:01:32;;;;;;;;;;;;;;;25.85;38.74414;102769.4;;;;-65
2023/05/19 11:06:27;;;;;;;;;;;;;;;25.95;38.78711;102768.2;;;;-66
2023/05/19 11:11:26;;;;;;;;;;;;;;;26.17;38.46973;102756.4;;;;-66
2023/05/19 11:16:29;;;;;;;;;;;;;;;26.48;38.32129;102752.5;;;;-68
2023/05/19 11:21:26;;;;;;;;;;;;;;;26.8;36.54688;102751.6;;;;-67
2023/05/19 11:26:40;;;;;;;;;;;;;;;26.77;37.70703;102760.9;;;;-67
2023/05/19 11:30:35;;;;;;;0.2;0;;;;;;;;;;;;;-67
2023/05/19 11:31:27;;;;;;;;;;;;;;;26.74;37.29785;102760.5;;;;-67
2023/05/19 11:36:30;;;;;;;;;;;;;;;26.93;35.75488;102755.8;;;;-65
2023/05/19 11:41:27;;;;;;;;;;;;;;;27.05;36.31152;102744.7;;;;-67
2023/05/19 11:46:28;;;;;;;;;;;;;;;27.23;36.39453;102751.9;;;;-67
2023/05/19 11:51:27;;;;;;;;;;;;;;;27.17;37.28613;102755.6;;;;-68
2023/05/19 11:56:26;;;;;;;;;;;;;;;27.31;35.99414;102747.7;;;;-66
2023/05/19 12:00:41;;;;;;;0.3;0.1;;;;;;;;;;;;;-65
2023/05/19 12:01:26;;;;;;;;;;;;;;;27.35;38.37207;102742;;;;-66
2023/05/19 12:06:26;;;;;;;;;;;;;;;27.2;37.94043;102741.9;;;;-68
2023/05/19 12:11:27;;;;;;;;;;;;;;;26.86;38.0625;102738.3;;;;-67
2023/05/19 12:16:26;;;;;;;;;;;;;;;26.99;38.00488;102745.3;;;;-66
2023/05/19 12:21:26;;;;;;;;;;;;;;;27.09;37.06934;102740.6;;;;-66
2023/05/19 12:26:26;;;;;;;;;;;;;;;27.15;37.0166;102736.4;;;;-67
2023/05/19 12:30:50;;;;;;;0.2;0;;;;;;;;;;;;;-67
2023/05/19 12:31:26;;;;;;;;;;;;;;;27.38;36.6748;102722.2;;;;-67
2023/05/19 12:36:27;;;;;;;;;;;;;;;27.46;36.0293;102720.8;;;;-67
2023/05/19 12:41:26;;;;;;;;;;;;;;;27.54;37.39844;102718.4;;;;-68
2023/05/19 12:46:26;;;;;;;;;;;;;;;27.62;37.31152;102708.5;;;;-67
2023/05/19 12:51:26;;;;;;;;;;;;;;;27.6;36.16895;102707;;;;-67
2023/05/19 12:56:28;;;;;;;;;;;;;;;27.75;35.7959;102711.4;;;;-67
2023/05/19 13:00:50;;;;;;;0.2;0;;;;;;;;;;;;;-66
2023/05/19 13:01:27;;;;;;;;;;;;;;;27.73;35.8877;102695.1;;;;-66
2023/05/19 13:06:26;;;;;;;;;;;;;;;27.87;36.79688;102698.8;;;;-68
2023/05/19 13:11:26;;;;;;;;;;;;;;;28;35.93262;102693.3;;;;-67
2023/05/19 13:16:27;;;;;;;;;;;;;;;28.13;34.42578;102697.7;;;;-66
2023/05/19 13:21:26;;;;;;;;;;;;;;;28.11;35.24121;102690.1;;;;-66
2023/05/19 13:26:26;;;;;;;;;;;;;;;28.12;34.4248;102678.4;;;;-66
2023/05/19 13:30:54;;;;;;;0.2;0;;;;;;;;;;;;;-66
2023/05/19 13:31:26;;;;;;;;;;;;;;;28.1;35.25195;102676.2;;;;-66
2023/05/19 13:36:26;;;;;;;;;;;;;;;28.2;35.24805;102673.1;;;;-66
2023/05/19 13:41:29;;;;;;;;;;;;;;;28.19;34.52441;102668.3;;;;-66
2023/05/19 13:46:26;;;;;;;;;;;;;;;28.12;35.54492;102670.8;;;;-66
2023/05/19 13:51:26;;;;;;;;;;;;;;;28.26;34.68066;102658.5;;;;-66
2023/05/19 13:56:26;;;;;;;;;;;;;;;28.13;34.57715;102666.6;;;;-65
2023/05/19 14:00:58;;;;;;;0.2;0.1;;;;;;;;;;;;;-67
2023/05/19 14:01:26;;;;;;;;;;;;;;;28.14;34.71777;102666.3;;;;-66
2023/05/19 14:06:26;;;;;;;;;;;;;;;28.12;34.78711;102659.4;;;;-67
2023/05/19 14:14:06;;;;;;;;;;;;;;;28.22;34.58496;102651.3;;;;-67
2023/05/19 14:19:06;;;;;;;;;;;;;;;28.28;35.76855;102642.7;;;;-68
2023/05/19 14:24:06;;;;;;;;;;;;;;;28.42;35.65039;102648.6;;;;-67
2023/05/19 14:29:07;;;;;;;;;;;;;;;28.42;35.5918;102651.5;;;;-66
2023/05/19 14:31:04;;;;;;;0.2;0.1;;;;;;;;;;;;;-68
2023/05/19 14:34:06;;;;;;;;;;;;;;;28.38;34.98145;102650.7;;;;-66
2023/05/19 14:39:06;;;;;;;;;;;;;;;28.34;35.55078;102646.2;;;;-67
2023/05/19 14:44:06;;;;;;;;;;;;;;;28.36;36.39355;102649.3;;;;-67
2023/05/19 14:49:06;;;;;;;;;;;;;;;28.34;35.5752;102639.7;;;;-68
2023/05/19 14:54:06;;;;;;;;;;;;;;;28.32;35.70117;102640.8;;;;-67
2023/05/19 14:59:06;;;;;;;;;;;;;;;28.28;34.70605;102638.3;;;;-68
2023/05/19 15:01:08;;;;;;;0.2;0.1;;;;;;;;;;;;;-65
2023/05/19 15:04:06;;;;;;;;;;;;;;;28.16;35.44336;102632;;;;-68
2023/05/19 15:09:06;;;;;;;;;;;;;;;28.06;35.49414;102620.2;;;;-68
2023/05/19 15:14:06;;;;;;;;;;;;;;;28.1;35.68359;102625;;;;-67
2023/05/19 15:19:06;;;;;;;;;;;;;;;27.96;35.92871;102624.3;;;;-68
2023/05/19 15:24:06;;;;;;;;;;;;;;;27.94;35.66016;102622.5;;;;-70
2023/05/19 15:29:06;;;;;;;;;;;;;;;27.87;35.68945;102620.2;;;;-68
2023/05/19 15:31:13;;;;;;;0.2;0.1;;;;;;;;;;;;;-67
2023/05/19 15:34:06;;;;;;;;;;;;;;;27.82;33.78418;102620.8;;;;-65
2023/05/19 15:39:06;;;;;;;;;;;;;;;27.59;33.37012;102616.1;;;;-67
2023/05/19 15:44:07;;;;;;;;;;;;;;;27.54;35.94238;102613.5;;;;-68
2023/05/19 15:49:06;;;;;;;;;;;;;;;27.33;35.78613;102607.2;;;;-68
2023/05/19 15:54:06;;;;;;;;;;;;;;;27.17;35.33105;102603.6;;;;-69
2023/05/19 15:59:06;;;;;;;;;;;;;;;27;35.71387;102597.5;;;;-65
2023/05/19 16:01:20;;;;;;;0.2;0;;;;;;;;;;;;;-68
2023/05/19 16:04:06;;;;;;;;;;;;;;;26.83;36.30469;102594.4;;;;-67
2023/05/19 16:09:06;;;;;;;;;;;;;;;26.67;36.78027;102592.4;;;;-70
2023/05/19 16:14:06;;;;;;;;;;;;;;;26.44;35.44824;102590.1;;;;-66
2023/05/19 16:19:06;;;;;;;;;;;;;;;26.18;36.87988;102594.1;;;;-67
2023/05/19 16:24:06;;;;;;;;;;;;;;;25.97;36.75781;102589.5;;;;-68
2023/05/19 16:29:08;;;;;;;;;;;;;;;25.92;36.87012;102582.7;;;;-67
2023/05/19 16:31:23;;;;;;;0.2;0;;;;;;;;;;;;;-67
2023/05/19 16:34:06;;;;;;;;;;;;;;;25.83;36.36328;102584;;;;-69
2023/05/19 16:39:09;;;;;;;;;;;;;;;25.64;36.99707;102577.9;;;;-66
2023/05/19 16:44:07;;;;;;;;;;;;;;;25.55;37.22266;102580.6;;;;-71
2023/05/19 16:49:15;;;;;;;;;;;;;;;25.44;37.09766;102576.8;;;;-72
2023/05/19 16:54:08;;;;;;;;;;;;;;;25.34;37.01953;102576.3;;;;-74
2023/05/19 16:59:06;;;;;;;;;;;;;;;25.12;37.17578;102577.2;;;;-70
2023/05/19 17:01:28;;;;;;;0.3;0.1;;;;;;;;;;;;;-73
2023/05/19 17:04:12;;;;;;;;;;;;;;;24.95;37.74023;102576;;;;-71
2023/05/19 17:09:06;;;;;;;;;;;;;;;24.66;37.49609;102584;;;;-72
2023/05/19 17:14:06;;;;;;;;;;;;;;;24.46;37.91895;102587.9;;;;-71
2023/05/19 17:19:06;;;;;;;;;;;;;;;24.25;38.58301;102590.7;;;;-68
2023/05/19 17:24:06;;;;;;;;;;;;;;;24.04;39.0498;102583.8;;;;-68
2023/05/19 17:29:06;;;;;;;;;;;;;;;23.83;39.21582;102584.5;;;;-68
2023/05/19 17:31:32;;;;;;;1.2;0.5;;;;;;;;;;;;;-66
2023/05/19 17:34:06;;;;;;;;;;;;;;;23.56;39.80371;102586.9;;;;-68
2023/05/19 17:39:06;;;;;;;;;;;;;;;23.37;40.0293;102586.6;;;;-70
2023/05/19 17:44:12;;;;;;;;;;;;;;;23.17;40.7959;102589.5;;;;-68
2023/05/19 17:49:06;;;;;;;;;;;;;;;22.95;41.11914;102599.5;;;;-69
2023/05/19 17:54:06;;;;;;;;;;;;;;;22.77;41.4375;102606.8;;;;-67
2023/05/19 17:59:06;;;;;;;;;;;;;;;22.46;41.5127;102599.2;;;;-69
2023/05/19 18:01:36;;;;;;;0.2;0.1;;;;;;;;;;;;;-68
2023/05/19 18:04:06;;;;;;;;;;;;;;;22.23;42.06445;102604.6;;;;-66
2023/05/19 18:09:07;;;;;;;;;;;;;;;21.98;42.54688;102599.5;;;;-67
2023/05/19 18:14:06;;;;;;;;;;;;;;;21.81;43.04688;102603.4;;;;-68
2023/05/19 18:19:06;;;;;;;;;;;;;;;21.63;43.14551;102611.8;;;;-69
2023/05/19 18:24:06;;;;;;;;;;;;;;;21.38;43.7168;102615;;;;-70
2023/05/19 18:29:06;;;;;;;;;;;;;;;21.18;43.82324;102610.9;;;;-70
2023/05/19 18:31:40;;;;;;;0.2;0.1;;;;;;;;;;;;;-70
2023/05/19 18:34:06;;;;;;;;;;;;;;;21;43.80566;102615.3;;;;-67
2023/05/19 18:39:07;;;;;;;;;;;;;;;20.79;44.07129;102622.4;;;;-69
2023/05/19 18:44:09;;;;;;;;;;;;;;;20.57;43.79883;102622.4;;;;-70
2023/05/19 18:49:06;;;;;;;;;;;;;;;20.38;44.62598;102630.7;;;;-68
2023/05/19 18:54:06;;;;;;;;;;;;;;;20.2;44.40234;102634.7;;;;-70
2023/05/19 18:59:17;;;;;;;;;;;;;;;19.99;43.59277;102638;;;;-69
2023/05/19 19:01:44;;;;;;;0.2;0.1;;;;;;;;;;;;;-69
2023/05/19 19:04:06;;;;;;;;;;;;;;;19.78;44.47461;102635.6;;;;-69
2023/05/19 19:09:08;;;;;;;;;;;;;;;19.59;44.53516;102628.4;;;;-70
2023/05/19 19:14:06;;;;;;;;;;;;;;;19.35;45.16211;102639.8;;;;-69
2023/05/19 19:19:06;;;;;;;;;;;;;;;19.12;44.93359;102640.3;;;;-71
2023/05/19 19:24:06;;;;;;;;;;;;;;;18.93;44.81055;102641.3;;;;-69
2023/05/19 19:29:06;;;;;;;;;;;;;;;18.71;45.51758;102641.3;;;;-71
2023/05/19 19:31:47;;;;;;;0.3;0.1;;;;;;;;;;;;;-71
2023/05/19 19:34:07;;;;;;;;;;;;;;;18.53;45.9541;102644.7;;;;-69
2023/05/19 19:39:09;;;;;;;;;;;;;;;18.3;46.22754;102649.6;;;;-68
2023/05/19 19:44:06;;;;;;;;;;;;;;;18.08;46.31738;102663.4;;;;-68
2023/05/19 19:49:06;;;;;;;;;;;;;;;17.89;46.88867;102663.5;;;;-68
2023/05/19 19:54:06;;;;;;;;;;;;;;;17.72;46.87012;102667.3;;;;-68
2023/05/19 19:59:06;;;;;;;;;;;;;;;17.53;47.46387;102669.1;;;;-70
2023/05/19 20:01:49;;;;;;;0.4;0.2;;;;;;;;;;;;;-71
2023/05/19 20:04:14;;;;;;;;;;;;;;;17.3;47.80273;102674.6;;;;-68
2023/05/19 20:09:06;;;;;;;;;;;;;;;17.16;48.11621;102675.9;;;;-68
2023/05/19 20:14:06;;;;;;;;;;;;;;;17;48.31445;102681.5;;;;-68
2023/05/19 20:19:10;;;;;;;;;;;;;;;16.85;48.76172;102685.9;;;;-69
2023/05/19 20:24:06;;;;;;;;;;;;;;;16.62;49.42773;102693.3;;;;-68
2023/05/19 20:29:08;;;;;;;;;;;;;;;16.53;49.41797;102706.9;;;;-72
2023/05/19 20:31:52;;;;;;;0.2;0;;;;;;;;;;;;;-74
2023/05/19 20:34:06;;;;;;;;;;;;;;;16.35;49.38672;102705.1;;;;-70
2023/05/19 20:39:07;;;;;;;;;;;;;;;16.22;49.44922;102710.8;;;;-68
2023/05/19 20:44:07;;;;;;;;;;;;;;;16.09;49.78613;102712.3;;;;-68
2023/05/19 20:49:06;;;;;;;;;;;;;;;15.95;50.21191;102708.7;;;;-69
2023/05/19 20:54:08;;;;;;;;;;;;;;;15.83;49.97168;102705.6;;;;-68
2023/05/19 20:59:06;;;;;;;;;;;;;;;15.7;50.4082;102710;;;;-67
2023/05/19 21:01:54;;;;;;;0.2;0;;;;;;;;;;;;;-70
2023/05/19 21:04:07;;;;;;;;;;;;;;;15.59;50.2041;102711.4;;;;-68
2023/05/19 21:09:14;;;;;;;;;;;;;;;15.44;50.61621;102718.2;;;;-68
2023/05/19 21:14:06;;;;;;;;;;;;;;;15.35;50.53809;102716.6;;;;-68
2023/05/19 21:19:06;;;;;;;;;;;;;;;15.24;51.05566;102726.7;;;;-70
2023/05/19 21:24:06;;;;;;;;;;;;;;;15.12;51.13086;102730.6;;;;-70
2023/05/19 21:29:06;;;;;;;;;;;;;;;15.03;51.85449;102738.9;;;;-68
2023/05/19 21:31:58;;;;;;;0.2;0;;;;;;;;;;;;;-68
2023/05/19 21:34:07;;;;;;;;;;;;;;;14.91;52.12207;102740.9;;;;-69
2023/05/19 21:39:06;;;;;;;;;;;;;;;14.85;52.14844;102742.1;;;;-69
2023/05/19 21:44:06;;;;;;;;;;;;;;;14.77;52.30762;102739.3;;;;-69
2023/05/19 21:49:06;;;;;;;;;;;;;;;14.64;52.36035;102742.1;;;;-68
2023/05/19 21:54:06;;;;;;;;;;;;;;;14.58;52.80469;102739.9;;;;-68
2023/05/19 21:59:06;;;;;;;;;;;;;;;14.52;52.85254;102747.4;;;;-68
2023/05/19 22:02:01;;;;;;;0.2;0;;;;;;;;;;;;;-68
2023/05/19 22:04:06;;;;;;;;;;;;;;;14.41;52.97559;102746.4;;;;-71
2023/05/19 22:09:06;;;;;;;;;;;;;;;14.34;52.94336;102742.7;;;;-68
2023/05/19 22:14:06;;;;;;;;;;;;;;;14.28;53.26172;102737.5;;;;-69
2023/05/19 22:19:06;;;;;;;;;;;;;;;14.21;53.55859;102736.5;;;;-68
2023/05/19 22:24:07;;;;;;;;;;;;;;;14.1;53.75781;102738.9;;;;-69
2023/05/19 22:29:06;;;;;;;;;;;;;;;14.04;53.57031;102733.4;;;;-68
2023/05/19 22:32:01;;;;;;;0.2;0;;;;;;;;;;;;;-69
2023/05/19 22:34:11;;;;;;;;;;;;;;;13.95;54.35742;102732.6;;;;-67
2023/05/19 22:39:06;;;;;;;;;;;;;;;13.91;54.33203;102733.1;;;;-69
2023/05/19 22:44:07;;;;;;;;;;;;;;;13.84;54.66016;102731.4;;;;-67
2023/05/19 22:49:06;;;;;;;;;;;;;;;13.79;54.73145;102732.9;;;;-69
2023/05/19 22:54:06;;;;;;;;;;;;;;;13.72;55.03711;102733.5;;;;-68
2023/05/19 22:59:06;;;;;;;;;;;;;;;13.69;55.49414;102733.8;;;;-69
2023/05/19 23:02:02;;;;;;;0.2;0.1;;;;;;;;;;;;;-67
2023/05/19 23:04:06;;;;;;;;;;;;;;;13.62;55.15918;102737.5;;;;-70
2023/05/19 23:09:06;;;;;;;;;;;;;;;13.58;55.28809;102737.7;;;;-70
2023/05/19 23:14:06;;;;;;;;;;;;;;;13.52;55.69629;102726.2;;;;-69
2023/05/19 23:19:06;;;;;;;;;;;;;;;13.48;55.55566;102730.7;;;;-67
2023/05/19 23:24:06;;;;;;;;;;;;;;;13.4;56.37598;102724.1;;;;-68
2023/05/19 23:29:06;;;;;;;;;;;;;;;13.36;56.2373;102730.5;;;;-69
2023/05/19 23:32:04;;;;;;;0.2;0;;;;;;;;;;;;;-70
2023/05/19 23:34:06;;;;;;;;;;;;;;;13.36;56.31543;102728.6;;;;-67
2023/05/19 23:39:06;;;;;;;;;;;;;;;13.3;56.33008;102725.1;;;;-69
2023/05/19 23:44:06;;;;;;;;;;;;;;;13.23;56.63379;102728.3;;;;-68
2023/05/19 23:49:07;;;;;;;;;;;;;;;13.29;56.92383;102728.3;;;;-68
2023/05/19 23:54:09;;;;;;;;;;;;;;;13.13;57.2832;102719.1;;;;-68
2023/05/19 23:59:08;;;;;;;;;;;;;;;13.11;56.92285;102717;;;;-67
